sensor_id;sensor_type;location;lat;lon;timestamp;P1;P2;P0
36513;PMS5003;66331;46.796;9.824;2023-02-12T00:02:17;7;6;
36513;PMS5003;66331;46.796;9.824;2023-02-12T00:04:46;6;6;
36513;PMS5003;66331;46.796;9.824;2023-02-12T00:07:13;9;9;
36513;PMS5003;66331;46.796;9.824;2023-02-12T00:09:40;6;6;
36513;PMS5003;66331;46.796;9.824;2023-02-12T00:12:09;6;6;
36513;PMS5003;66331;46.796;9.824;2023-02-12T00:14:36;6;6;
36513;PMS5003;66331;46.796;9.824;2023-02-12T00:17:03;6;6;
36513;PMS5003;66331;46.796;9.824;2023-02-12T00:19:31;5;5;
36513;PMS5003;66331;46.796;9.824;2023-02-12T00:21:58;6;6;
36513;PMS5003;66331;46.796;9.824;2023-02-12T00:24:25;7;7;
36513;PMS5003;66331;46.796;9.824;2023-02-12T00:26:52;9;9;
36513;PMS5003;66331;46.796;9.824;2023-02-12T00:29:19;15;9;
36513;PMS5003;66331;46.796;9.824;2023-02-12T00:31:46;10;9;
36513;PMS5003;66331;46.796;9.824;2023-02-12T00:34:13;6;6;
36513;PMS5003;66331;46.796;9.824;2023-02-12T00:36:40;5;3;
36513;PMS5003;66331;46.796;9.824;2023-02-12T00:39:08;5;5;
36513;PMS5003;66331;46.796;9.824;2023-02-12T00:41:45;10;9;
36513;PMS5003;66331;46.796;9.824;2023-02-12T00:44:12;6;6;
36513;PMS5003;66331;46.796;9.824;2023-02-12T00:46:40;7;6;
36513;PMS5003;66331;46.796;9.824;2023-02-12T00:49:14;7;7;
36513;PMS5003;66331;46.796;9.824;2023-02-12T00:51:41;13;13;
36513;PMS5003;66331;46.796;9.824;2023-02-12T00:54:08;7;7;
36513;PMS5003;66331;46.796;9.824;2023-02-12T00:56:35;5;5;
36513;PMS5003;66331;46.796;9.824;2023-02-12T00:59:08;6;5;
36513;PMS5003;66331;46.796;9.824;2023-02-12T01:01:36;6;6;
36513;PMS5003;66331;46.796;9.824;2023-02-12T01:04:03;13;10;
36513;PMS5003;66331;46.796;9.824;2023-02-12T01:06:30;13;9;
36513;PMS5003;66331;46.796;9.824;2023-02-12T01:08:58;11;9;
36513;PMS5003;66331;46.796;9.824;2023-02-12T01:11:25;11;9;
36513;PMS5003;66331;46.796;9.824;2023-02-12T01:13:57;9;9;
36513;PMS5003;66331;46.796;9.824;2023-02-12T01:16:26;7;7;
36513;PMS5003;66331;46.796;9.824;2023-02-12T01:18:55;9;6;
36513;PMS5003;66331;46.796;9.824;2023-02-12T01:21:24;7;7;
36513;PMS5003;66331;46.796;9.824;2023-02-12T01:23:54;6;5;
36513;PMS5003;66331;46.796;9.824;2023-02-12T01:26:28;6;6;
36513;PMS5003;66331;46.796;9.824;2023-02-12T01:28:57;9;7;
36513;PMS5003;66331;46.796;9.824;2023-02-12T01:31:27;7;7;
36513;PMS5003;66331;46.796;9.824;2023-02-12T01:33:58;7;6;
36513;PMS5003;66331;46.796;9.824;2023-02-12T01:36:26;9;9;
36513;PMS5003;66331;46.796;9.824;2023-02-12T01:38:55;7;6;
36513;PMS5003;66331;46.796;9.824;2023-02-12T01:41:23;5;5;
36513;PMS5003;66331;46.796;9.824;2023-02-12T01:44:10;5;3;
36513;PMS5003;66331;46.796;9.824;2023-02-12T01:46:40;5;5;
36513;PMS5003;66331;46.796;9.824;2023-02-12T01:49:11;5;5;
36513;PMS5003;66331;46.796;9.824;2023-02-12T01:51:45;2;2;
36513;PMS5003;66331;46.796;9.824;2023-02-12T01:54:14;5;5;
36513;PMS5003;66331;46.796;9.824;2023-02-12T01:56:55;6;6;
36513;PMS5003;66331;46.796;9.824;2023-02-12T01:59:23;5;3;
36513;PMS5003;66331;46.796;9.824;2023-02-12T02:02:04;6;5;
36513;PMS5003;66331;46.796;9.824;2023-02-12T02:04:35;6;6;
36513;PMS5003;66331;46.796;9.824;2023-02-12T02:07:08;7;5;
36513;PMS5003;66331;46.796;9.824;2023-02-12T02:09:37;6;5;
36513;PMS5003;66331;46.796;9.824;2023-02-12T02:12:06;6;3;
36513;PMS5003;66331;46.796;9.824;2023-02-12T02:14:35;6;3;
36513;PMS5003;66331;46.796;9.824;2023-02-12T02:17:10;3;3;
36513;PMS5003;66331;46.796;9.824;2023-02-12T02:19:53;5;3;
36513;PMS5003;66331;46.796;9.824;2023-02-12T02:21:11;5;3;
36513;PMS5003;66331;46.796;9.824;2023-02-12T02:24:57;5;4;
36513;PMS5003;66331;46.796;9.824;2023-02-12T02:27:44;5;3;
36513;PMS5003;66331;46.796;9.824;2023-02-12T02:30:32;8;5;
36513;PMS5003;66331;46.796;9.824;2023-02-12T02:33:08;5;5;
36513;PMS5003;66331;46.796;9.824;2023-02-12T02:35:45;2;2;
36513;PMS5003;66331;46.796;9.824;2023-02-12T02:38:21;3;3;
36513;PMS5003;66331;46.796;9.824;2023-02-12T02:40:56;5;5;
36513;PMS5003;66331;46.796;9.824;2023-02-12T02:43:32;6;3;
36513;PMS5003;66331;46.796;9.824;2023-02-12T02:46:07;5;5;
36513;PMS5003;66331;46.796;9.824;2023-02-12T02:48:40;6;3;
36513;PMS5003;66331;46.796;9.824;2023-02-12T02:51:13;3;3;
36513;PMS5003;66331;46.796;9.824;2023-02-12T02:53:47;5;5;
36513;PMS5003;66331;46.796;9.824;2023-02-12T02:56:19;1;1;
36513;PMS5003;66331;46.796;9.824;2023-02-12T02:58:52;2;2;
36513;PMS5003;66331;46.796;9.824;2023-02-12T03:01:23;3;3;
36513;PMS5003;66331;46.796;9.824;2023-02-12T03:03:55;4;4;
36513;PMS5003;66331;46.796;9.824;2023-02-12T03:06:28;6;6;
36513;PMS5003;66331;46.796;9.824;2023-02-12T03:09:08;5;5;
36513;PMS5003;66331;46.796;9.824;2023-02-12T03:11:40;3;3;
36513;PMS5003;66331;46.796;9.824;2023-02-12T03:14:08;3;3;
36513;PMS5003;66331;46.796;9.824;2023-02-12T03:16:45;3;3;
36513;PMS5003;66331;46.796;9.824;2023-02-12T03:19:21;2;2;
36513;PMS5003;66331;46.796;9.824;2023-02-12T03:21:54;6;6;
36513;PMS5003;66331;46.796;9.824;2023-02-12T03:24:27;6;6;
36513;PMS5003;66331;46.796;9.824;2023-02-12T03:26:59;5;5;
36513;PMS5003;66331;46.796;9.824;2023-02-12T03:29:32;6;6;
36513;PMS5003;66331;46.796;9.824;2023-02-12T03:32:03;8;6;
36513;PMS5003;66331;46.796;9.824;2023-02-12T03:34:44;6;6;
36513;PMS5003;66331;46.796;9.824;2023-02-12T03:37:17;6;5;
36513;PMS5003;66331;46.796;9.824;2023-02-12T03:39:49;6;4;
36513;PMS5003;66331;46.796;9.824;2023-02-12T03:42:23;5;5;
36513;PMS5003;66331;46.796;9.824;2023-02-12T03:45:00;6;6;
36513;PMS5003;66331;46.796;9.824;2023-02-12T03:47:36;2;2;
36513;PMS5003;66331;46.796;9.824;2023-02-12T03:50:11;2;2;
36513;PMS5003;66331;46.796;9.824;2023-02-12T03:52:41;4;4;
36513;PMS5003;66331;46.796;9.824;2023-02-12T03:55:09;9;6;
36513;PMS5003;66331;46.796;9.824;2023-02-12T03:57:38;4;4;
36513;PMS5003;66331;46.796;9.824;2023-02-12T04:00:13;5;5;
36513;PMS5003;66331;46.796;9.824;2023-02-12T04:02:44;12;9;
36513;PMS5003;66331;46.796;9.824;2023-02-12T04:05:16;4;4;
36513;PMS5003;66331;46.796;9.824;2023-02-12T04:07:49;4;4;
36513;PMS5003;66331;46.796;9.824;2023-02-12T04:10:19;5;5;
36513;PMS5003;66331;46.796;9.824;2023-02-12T04:12:53;6;6;
36513;PMS5003;66331;46.796;9.824;2023-02-12T04:15:34;2;2;
36513;PMS5003;66331;46.796;9.824;2023-02-12T04:18:10;4;4;
36513;PMS5003;66331;46.796;9.824;2023-02-12T04:20:47;5;4;
36513;PMS5003;66331;46.796;9.824;2023-02-12T04:23:25;6;5;
36513;PMS5003;66331;46.796;9.824;2023-02-12T04:26:06;5;4;
36513;PMS5003;66331;46.796;9.824;2023-02-12T04:28:42;4;4;
36513;PMS5003;66331;46.796;9.824;2023-02-12T04:31:19;6;4;
36513;PMS5003;66331;46.796;9.824;2023-02-12T04:33:52;4;4;
36513;PMS5003;66331;46.796;9.824;2023-02-12T04:36:26;5;4;
36513;PMS5003;66331;46.796;9.824;2023-02-12T04:38:59;4;4;
36513;PMS5003;66331;46.796;9.824;2023-02-12T04:41:31;4;4;
36513;PMS5003;66331;46.796;9.824;2023-02-12T04:44:11;5;4;
36513;PMS5003;66331;46.796;9.824;2023-02-12T04:46:40;5;4;
36513;PMS5003;66331;46.796;9.824;2023-02-12T04:49:08;2;2;
36513;PMS5003;66331;46.796;9.824;2023-02-12T04:51:39;2;2;
36513;PMS5003;66331;46.796;9.824;2023-02-12T04:54:06;5;5;
36513;PMS5003;66331;46.796;9.824;2023-02-12T04:56:34;2;2;
36513;PMS5003;66331;46.796;9.824;2023-02-12T04:59:01;2;2;
36513;PMS5003;66331;46.796;9.824;2023-02-12T05:01:28;5;5;
36513;PMS5003;66331;46.796;9.824;2023-02-12T05:03:55;4;4;
36513;PMS5003;66331;46.796;9.824;2023-02-12T05:06:22;5;5;
36513;PMS5003;66331;46.796;9.824;2023-02-12T05:08:51;4;4;
36513;PMS5003;66331;46.796;9.824;2023-02-12T05:11:18;5;5;
36513;PMS5003;66331;46.796;9.824;2023-02-12T05:13:47;5;5;
36513;PMS5003;66331;46.796;9.824;2023-02-12T05:16:14;4;4;
36513;PMS5003;66331;46.796;9.824;2023-02-12T05:18:42;4;4;
36513;PMS5003;66331;46.796;9.824;2023-02-12T05:21:09;9;6;
36513;PMS5003;66331;46.796;9.824;2023-02-12T05:23:37;10;9;
36513;PMS5003;66331;46.796;9.824;2023-02-12T05:26:07;12;9;
36513;PMS5003;66331;46.796;9.824;2023-02-12T05:28:37;6;6;
36513;PMS5003;66331;46.796;9.824;2023-02-12T05:31:05;12;10;
36513;PMS5003;66331;46.796;9.824;2023-02-12T05:33:34;9;6;
36513;PMS5003;66331;46.796;9.824;2023-02-12T05:36:03;6;6;
36513;PMS5003;66331;46.796;9.824;2023-02-12T05:38:31;8;8;
36513;PMS5003;66331;46.796;9.824;2023-02-12T05:41:02;9;9;
36513;PMS5003;66331;46.796;9.824;2023-02-12T05:43:30;8;6;
36513;PMS5003;66331;46.796;9.824;2023-02-12T05:45:58;6;5;
36513;PMS5003;66331;46.796;9.824;2023-02-12T05:48:25;6;5;
36513;PMS5003;66331;46.796;9.824;2023-02-12T05:50:53;4;4;
36513;PMS5003;66331;46.796;9.824;2023-02-12T05:53:20;5;5;
36513;PMS5003;66331;46.796;9.824;2023-02-12T05:55:47;6;6;
36513;PMS5003;66331;46.796;9.824;2023-02-12T05:58:14;8;6;
36513;PMS5003;66331;46.796;9.824;2023-02-12T06:00:41;8;8;
36513;PMS5003;66331;46.796;9.824;2023-02-12T06:03:08;6;6;
36513;PMS5003;66331;46.796;9.824;2023-02-12T06:05:36;5;5;
36513;PMS5003;66331;46.796;9.824;2023-02-12T06:08:03;5;5;
36513;PMS5003;66331;46.796;9.824;2023-02-12T06:10:30;5;5;
36513;PMS5003;66331;46.796;9.824;2023-02-12T06:12:57;14;8;
36513;PMS5003;66331;46.796;9.824;2023-02-12T06:15:38;12;9;
36513;PMS5003;66331;46.796;9.824;2023-02-12T06:18:06;6;6;
36513;PMS5003;66331;46.796;9.824;2023-02-12T06:20:33;9;9;
36513;PMS5003;66331;46.796;9.824;2023-02-12T06:23:00;5;5;
36513;PMS5003;66331;46.796;9.824;2023-02-12T06:25:27;8;6;
36513;PMS5003;66331;46.796;9.824;2023-02-12T06:27:55;6;6;
36513;PMS5003;66331;46.796;9.824;2023-02-12T06:30:22;9;9;
36513;PMS5003;66331;46.796;9.824;2023-02-12T06:32:49;6;5;
36513;PMS5003;66331;46.796;9.824;2023-02-12T06:35:17;6;6;
36513;PMS5003;66331;46.796;9.824;2023-02-12T06:37:44;8;6;
36513;PMS5003;66331;46.796;9.824;2023-02-12T06:40:12;6;5;
36513;PMS5003;66331;46.796;9.824;2023-02-12T06:42:39;9;6;
36513;PMS5003;66331;46.796;9.824;2023-02-12T06:45:06;8;6;
36513;PMS5003;66331;46.796;9.824;2023-02-12T06:47:34;8;8;
36513;PMS5003;66331;46.796;9.824;2023-02-12T06:50:01;6;6;
36513;PMS5003;66331;46.796;9.824;2023-02-12T06:52:29;8;6;
36513;PMS5003;66331;46.796;9.824;2023-02-12T06:54:56;9;9;
36513;PMS5003;66331;46.796;9.824;2023-02-12T06:57:23;12;8;
36513;PMS5003;66331;46.796;9.824;2023-02-12T06:59:50;10;8;
36513;PMS5003;66331;46.796;9.824;2023-02-12T07:02:17;5;5;
36513;PMS5003;66331;46.796;9.824;2023-02-12T07:04:45;6;5;
36513;PMS5003;66331;46.796;9.824;2023-02-12T07:07:12;8;8;
36513;PMS5003;66331;46.796;9.824;2023-02-12T07:09:39;6;6;
36513;PMS5003;66331;46.796;9.824;2023-02-12T07:12:07;6;6;
36513;PMS5003;66331;46.796;9.824;2023-02-12T07:14:34;8;8;
36513;PMS5003;66331;46.796;9.824;2023-02-12T07:17:02;10;8;
36513;PMS5003;66331;46.796;9.824;2023-02-12T07:19:29;12;10;
36513;PMS5003;66331;46.796;9.824;2023-02-12T07:21:56;10;10;
36513;PMS5003;66331;46.796;9.824;2023-02-12T07:24:23;14;12;
36513;PMS5003;66331;46.796;9.824;2023-02-12T07:26:51;13;12;
36513;PMS5003;66331;46.796;9.824;2023-02-12T07:29:18;12;12;
36513;PMS5003;66331;46.796;9.824;2023-02-12T07:31:45;14;13;
36513;PMS5003;66331;46.796;9.824;2023-02-12T07:34:12;16;12;
36513;PMS5003;66331;46.796;9.824;2023-02-12T07:36:39;10;10;
36513;PMS5003;66331;46.796;9.824;2023-02-12T07:39:07;13;13;
36513;PMS5003;66331;46.796;9.824;2023-02-12T07:41:36;16;14;
36513;PMS5003;66331;46.796;9.824;2023-02-12T07:44:04;14;14;
36513;PMS5003;66331;46.796;9.824;2023-02-12T07:46:34;16;12;
36513;PMS5003;66331;46.796;9.824;2023-02-12T07:49:03;14;14;
36513;PMS5003;66331;46.796;9.824;2023-02-12T07:51:32;12;12;
36513;PMS5003;66331;46.796;9.824;2023-02-12T07:54:00;10;10;
36513;PMS5003;66331;46.796;9.824;2023-02-12T07:56:28;9;9;
36513;PMS5003;66331;46.796;9.824;2023-02-12T07:58:58;13;13;
36513;PMS5003;66331;46.796;9.824;2023-02-12T08:01:27;14;14;
36513;PMS5003;66331;46.796;9.824;2023-02-12T08:03:57;13;13;
36513;PMS5003;66331;46.796;9.824;2023-02-12T08:06:26;17;14;
36513;PMS5003;66331;46.796;9.824;2023-02-12T08:08:54;12;10;
36513;PMS5003;66331;46.796;9.824;2023-02-12T08:11:22;13;13;
36513;PMS5003;66331;46.796;9.824;2023-02-12T08:13:51;14;13;
36513;PMS5003;66331;46.796;9.824;2023-02-12T08:16:19;14;13;
36513;PMS5003;66331;46.796;9.824;2023-02-12T08:18:48;13;11;
36513;PMS5003;66331;46.796;9.824;2023-02-12T08:21:17;13;11;
36513;PMS5003;66331;46.796;9.824;2023-02-12T08:23:45;10;10;
36513;PMS5003;66331;46.796;9.824;2023-02-12T08:26:13;18;14;
36513;PMS5003;66331;46.796;9.824;2023-02-12T08:28:43;14;14;
36513;PMS5003;66331;46.796;9.824;2023-02-12T08:31:13;14;14;
36513;PMS5003;66331;46.796;9.824;2023-02-12T08:33:43;13;11;
36513;PMS5003;66331;46.796;9.824;2023-02-12T08:36:11;11;10;
36513;PMS5003;66331;46.796;9.824;2023-02-12T08:38:40;15;14;
36513;PMS5003;66331;46.796;9.824;2023-02-12T08:41:10;15;14;
36513;PMS5003;66331;46.796;9.824;2023-02-12T08:43:40;13;13;
36513;PMS5003;66331;46.796;9.824;2023-02-12T08:46:08;11;11;
36513;PMS5003;66331;46.796;9.824;2023-02-12T08:48:38;14;11;
36513;PMS5003;66331;46.796;9.824;2023-02-12T08:51:06;10;10;
36513;PMS5003;66331;46.796;9.824;2023-02-12T08:53:35;11;9;
36513;PMS5003;66331;46.796;9.824;2023-02-12T08:56:04;11;9;
36513;PMS5003;66331;46.796;9.824;2023-02-12T08:58:33;10;9;
36513;PMS5003;66331;46.796;9.824;2023-02-12T09:01:01;6;6;
36513;PMS5003;66331;46.796;9.824;2023-02-12T09:03:29;6;6;
36513;PMS5003;66331;46.796;9.824;2023-02-12T09:05:56;8;8;
36513;PMS5003;66331;46.796;9.824;2023-02-12T09:08:23;10;8;
36513;PMS5003;66331;46.796;9.824;2023-02-12T09:10:51;5;5;
36513;PMS5003;66331;46.796;9.824;2023-02-12T09:13:18;7;7;
36513;PMS5003;66331;46.796;9.824;2023-02-12T09:15:45;6;5;
36513;PMS5003;66331;46.796;9.824;2023-02-12T09:18:13;5;5;
36513;PMS5003;66331;46.796;9.824;2023-02-12T09:20:41;3;3;
36513;PMS5003;66331;46.796;9.824;2023-02-12T09:23:10;3;3;
36513;PMS5003;66331;46.796;9.824;2023-02-12T09:25:40;1;1;
36513;PMS5003;66331;46.796;9.824;2023-02-12T09:28:09;48;42;
36513;PMS5003;66331;46.796;9.824;2023-02-12T09:30:38;62;54;
36513;PMS5003;66331;46.796;9.824;2023-02-12T09:33:06;43;33;
36513;PMS5003;66331;46.796;9.824;2023-02-12T09:35:35;49;41;
36513;PMS5003;66331;46.796;9.824;2023-02-12T09:38:03;44;37;
36513;PMS5003;66331;46.796;9.824;2023-02-12T09:40:33;30;26;
36513;PMS5003;66331;46.796;9.824;2023-02-12T09:43:10;25;23;
36513;PMS5003;66331;46.796;9.824;2023-02-12T09:45:44;35;30;
36513;PMS5003;66331;46.796;9.824;2023-02-12T09:48:25;31;25;
36513;PMS5003;66331;46.796;9.824;2023-02-12T09:51:02;30;24;
36513;PMS5003;66331;46.796;9.824;2023-02-12T09:53:34;45;33;
36513;PMS5003;66331;46.796;9.824;2023-02-12T09:56:08;38;31;
36513;PMS5003;66331;46.796;9.824;2023-02-12T09:58:40;22;21;
36513;PMS5003;66331;46.796;9.824;2023-02-12T10:01:11;31;26;
36513;PMS5003;66331;46.796;9.824;2023-02-12T10:03:41;21;15;
36513;PMS5003;66331;46.796;9.824;2023-02-12T10:06:10;14;13;
36513;PMS5003;66331;46.796;9.824;2023-02-12T10:08:44;7;7;
36513;PMS5003;66331;46.796;9.824;2023-02-12T10:11:23;4;4;
36513;PMS5003;66331;46.796;9.824;2023-02-12T10:14:07;5;5;
36513;PMS5003;66331;46.796;9.824;2023-02-12T10:16:49;3;3;
36513;PMS5003;66331;46.796;9.824;2023-02-12T10:19:32;1;1;
36513;PMS5003;66331;46.796;9.824;2023-02-12T10:22:16;1;1;
36513;PMS5003;66331;46.796;9.824;2023-02-12T10:24:56;3;2;
36513;PMS5003;66331;46.796;9.824;2023-02-12T10:27:34;2;2;
36513;PMS5003;66331;46.796;9.824;2023-02-12T10:30:13;2;2;
36513;PMS5003;66331;46.796;9.824;2023-02-12T10:32:45;3;2;
36513;PMS5003;66331;46.796;9.824;2023-02-12T10:35:20;2;2;
36513;PMS5003;66331;46.796;9.824;2023-02-12T10:37:49;4;3;
36513;PMS5003;66331;46.796;9.824;2023-02-12T10:40:23;5;4;
36513;PMS5003;66331;46.796;9.824;2023-02-12T10:42:52;2;2;
36513;PMS5003;66331;46.796;9.824;2023-02-12T10:45:21;4;3;
36513;PMS5003;66331;46.796;9.824;2023-02-12T10:47:53;1;1;
36513;PMS5003;66331;46.796;9.824;2023-02-12T10:50:32;2;1;
36513;PMS5003;66331;46.796;9.824;2023-02-12T10:53:12;7;7;
36513;PMS5003;66331;46.796;9.824;2023-02-12T10:55:45;7;6;
36513;PMS5003;66331;46.796;9.824;2023-02-12T10:58:16;4;4;
36513;PMS5003;66331;46.796;9.824;2023-02-12T11:00:47;5;5;
36513;PMS5003;66331;46.796;9.824;2023-02-12T11:03:22;3;2;
36513;PMS5003;66331;46.796;9.824;2023-02-12T11:05:54;3;2;
36513;PMS5003;66331;46.796;9.824;2023-02-12T11:08:27;47;47;
36513;PMS5003;66331;46.796;9.824;2023-02-12T11:11:02;31;31;
36513;PMS5003;66331;46.796;9.824;2023-02-12T11:13:32;16;15;
36513;PMS5003;66331;46.796;9.824;2023-02-12T11:15:58;6;6;
36513;PMS5003;66331;46.796;9.824;2023-02-12T11:18:27;7;7;
36513;PMS5003;66331;46.796;9.824;2023-02-12T11:20:55;1;1;
36513;PMS5003;66331;46.796;9.824;2023-02-12T11:23:26;0;0;
36513;PMS5003;66331;46.796;9.824;2023-02-12T11:25:56;0;0;
36513;PMS5003;66331;46.796;9.824;2023-02-12T11:28:26;0;0;
36513;PMS5003;66331;46.796;9.824;2023-02-12T11:30:55;0;0;
36513;PMS5003;66331;46.796;9.824;2023-02-12T11:33:29;0;0;
36513;PMS5003;66331;46.796;9.824;2023-02-12T11:35:59;0;0;
36513;PMS5003;66331;46.796;9.824;2023-02-12T11:38:30;0;0;
36513;PMS5003;66331;46.796;9.824;2023-02-12T11:41:02;1;0;
36513;PMS5003;66331;46.796;9.824;2023-02-12T11:43:34;1;1;
36513;PMS5003;66331;46.796;9.824;2023-02-12T11:46:02;0;0;
36513;PMS5003;66331;46.796;9.824;2023-02-12T11:48:31;1;1;
36513;PMS5003;66331;46.796;9.824;2023-02-12T11:51:02;1;0;
36513;PMS5003;66331;46.796;9.824;2023-02-12T11:53:31;2;0;
36513;PMS5003;66331;46.796;9.824;2023-02-12T11:56:00;1;0;
36513;PMS5003;66331;46.796;9.824;2023-02-12T11:58:31;1;0;
36513;PMS5003;66331;46.796;9.824;2023-02-12T12:01:01;0;0;
36513;PMS5003;66331;46.796;9.824;2023-02-12T12:03:34;1;0;
36513;PMS5003;66331;46.796;9.824;2023-02-12T12:06:13;1;1;
36513;PMS5003;66331;46.796;9.824;2023-02-12T12:08:50;0;0;
36513;PMS5003;66331;46.796;9.824;2023-02-12T12:11:24;1;1;
36513;PMS5003;66331;46.796;9.824;2023-02-12T12:13:56;0;0;
36513;PMS5003;66331;46.796;9.824;2023-02-12T12:16:28;1;1;
36513;PMS5003;66331;46.796;9.824;2023-02-12T12:19:01;0;0;
36513;PMS5003;66331;46.796;9.824;2023-02-12T12:21:35;0;0;
36513;PMS5003;66331;46.796;9.824;2023-02-12T12:24:08;0;0;
36513;PMS5003;66331;46.796;9.824;2023-02-12T12:26:41;0;0;
36513;PMS5003;66331;46.796;9.824;2023-02-12T12:29:15;0;0;
36513;PMS5003;66331;46.796;9.824;2023-02-12T12:31:47;0;0;
36513;PMS5003;66331;46.796;9.824;2023-02-12T12:34:18;0;0;
36513;PMS5003;66331;46.796;9.824;2023-02-12T12:36:58;0;0;
36513;PMS5003;66331;46.796;9.824;2023-02-12T12:39:47;0;0;
36513;PMS5003;66331;46.796;9.824;2023-02-12T12:42:34;0;0;
36513;PMS5003;66331;46.796;9.824;2023-02-12T12:45:25;1;1;
36513;PMS5003;66331;46.796;9.824;2023-02-12T12:48:08;0;0;
36513;PMS5003;66331;46.796;9.824;2023-02-12T12:50:53;0;0;
36513;PMS5003;66331;46.796;9.824;2023-02-12T12:53:36;1;0;
36513;PMS5003;66331;46.796;9.824;2023-02-12T12:56:17;0;0;
36513;PMS5003;66331;46.796;9.824;2023-02-12T12:58:57;0;0;
36513;PMS5003;66331;46.796;9.824;2023-02-12T13:01:43;1;0;
36513;PMS5003;66331;46.796;9.824;2023-02-12T13:04:35;0;0;
36513;PMS5003;66331;46.796;9.824;2023-02-12T13:07:18;0;0;
36513;PMS5003;66331;46.796;9.824;2023-02-12T13:10:07;0;0;
36513;PMS5003;66331;46.796;9.824;2023-02-12T13:12:45;0;0;
36513;PMS5003;66331;46.796;9.824;2023-02-12T13:15:22;2;1;
36513;PMS5003;66331;46.796;9.824;2023-02-12T13:17:59;1;1;
36513;PMS5003;66331;46.796;9.824;2023-02-12T13:20:36;0;0;
36513;PMS5003;66331;46.796;9.824;2023-02-12T13:23:13;1;1;
36513;PMS5003;66331;46.796;9.824;2023-02-12T13:25:46;0;0;
36513;PMS5003;66331;46.796;9.824;2023-02-12T13:28:30;0;0;
36513;PMS5003;66331;46.796;9.824;2023-02-12T13:31:03;0;0;
36513;PMS5003;66331;46.796;9.824;2023-02-12T13:33:35;0;0;
36513;PMS5003;66331;46.796;9.824;2023-02-12T13:36:09;0;0;
36513;PMS5003;66331;46.796;9.824;2023-02-12T13:38:39;0;0;
36513;PMS5003;66331;46.796;9.824;2023-02-12T13:41:12;0;0;
36513;PMS5003;66331;46.796;9.824;2023-02-12T13:43:44;0;0;
36513;PMS5003;66331;46.796;9.824;2023-02-12T13:46:22;0;0;
36513;PMS5003;66331;46.796;9.824;2023-02-12T13:48:59;0;0;
36513;PMS5003;66331;46.796;9.824;2023-02-12T13:51:39;0;0;
36513;PMS5003;66331;46.796;9.824;2023-02-12T13:54:12;0;0;
36513;PMS5003;66331;46.796;9.824;2023-02-12T13:56:49;0;0;
36513;PMS5003;66331;46.796;9.824;2023-02-12T13:59:52;0;0;
36513;PMS5003;66331;46.796;9.824;2023-02-12T14:02:43;0;0;
36513;PMS5003;66331;46.796;9.824;2023-02-12T14:05:16;0;0;
36513;PMS5003;66331;46.796;9.824;2023-02-12T14:07:46;0;0;
36513;PMS5003;66331;46.796;9.824;2023-02-12T14:10:18;0;0;
36513;PMS5003;66331;46.796;9.824;2023-02-12T14:12:48;1;1;
36513;PMS5003;66331;46.796;9.824;2023-02-12T14:15:23;0;0;
36513;PMS5003;66331;46.796;9.824;2023-02-12T14:18:02;0;0;
36513;PMS5003;66331;46.796;9.824;2023-02-12T14:20:32;0;0;
36513;PMS5003;66331;46.796;9.824;2023-02-12T14:23:18;0;0;
36513;PMS5003;66331;46.796;9.824;2023-02-12T14:25:57;0;0;
36513;PMS5003;66331;46.796;9.824;2023-02-12T14:28:28;0;0;
36513;PMS5003;66331;46.796;9.824;2023-02-12T14:31:38;0;0;
36513;PMS5003;66331;46.796;9.824;2023-02-12T14:34:38;0;0;
36513;PMS5003;66331;46.796;9.824;2023-02-12T14:37:37;0;0;
36513;PMS5003;66331;46.796;9.824;2023-02-12T14:40:37;0;0;
36513;PMS5003;66331;46.796;9.824;2023-02-12T14:43:23;0;0;
36513;PMS5003;66331;46.796;9.824;2023-02-12T14:45:53;1;0;
36513;PMS5003;66331;46.796;9.824;2023-02-12T14:48:40;0;0;
36513;PMS5003;66331;46.796;9.824;2023-02-12T14:51:19;0;0;
36513;PMS5003;66331;46.796;9.824;2023-02-12T14:53:56;0;0;
36513;PMS5003;66331;46.796;9.824;2023-02-12T14:56:25;0;0;
36513;PMS5003;66331;46.796;9.824;2023-02-12T14:58:54;1;1;
36513;PMS5003;66331;46.796;9.824;2023-02-12T15:01:24;1;0;
36513;PMS5003;66331;46.796;9.824;2023-02-12T15:03:57;0;0;
36513;PMS5003;66331;46.796;9.824;2023-02-12T15:06:33;0;0;
36513;PMS5003;66331;46.796;9.824;2023-02-12T15:09:06;0;0;
36513;PMS5003;66331;46.796;9.824;2023-02-12T15:11:38;0;0;
36513;PMS5003;66331;46.796;9.824;2023-02-12T15:14:11;0;0;
36513;PMS5003;66331;46.796;9.824;2023-02-12T15:16:46;1;0;
36513;PMS5003;66331;46.796;9.824;2023-02-12T15:19:23;0;0;
36513;PMS5003;66331;46.796;9.824;2023-02-12T15:22:00;0;0;
36513;PMS5003;66331;46.796;9.824;2023-02-12T15:24:27;1;1;
36513;PMS5003;66331;46.796;9.824;2023-02-12T15:26:54;2;1;
36513;PMS5003;66331;46.796;9.824;2023-02-12T15:29:24;1;1;
36513;PMS5003;66331;46.796;9.824;2023-02-12T15:31:57;1;1;
36513;PMS5003;66331;46.796;9.824;2023-02-12T15:34:27;1;1;
36513;PMS5003;66331;46.796;9.824;2023-02-12T15:36:57;0;0;
36513;PMS5003;66331;46.796;9.824;2023-02-12T15:39:26;1;1;
36513;PMS5003;66331;46.796;9.824;2023-02-12T15:41:57;2;2;
36513;PMS5003;66331;46.796;9.824;2023-02-12T15:44:25;0;0;
36513;PMS5003;66331;46.796;9.824;2023-02-12T15:46:54;1;1;
36513;PMS5003;66331;46.796;9.824;2023-02-12T15:49:25;0;0;
36513;PMS5003;66331;46.796;9.824;2023-02-12T15:51:55;0;0;
36513;PMS5003;66331;46.796;9.824;2023-02-12T15:54:24;0;0;
36513;PMS5003;66331;46.796;9.824;2023-02-12T15:56:53;1;0;
36513;PMS5003;66331;46.796;9.824;2023-02-12T15:59:21;1;1;
36513;PMS5003;66331;46.796;9.824;2023-02-12T16:01:52;1;0;
36513;PMS5003;66331;46.796;9.824;2023-02-12T16:04:30;0;0;
36513;PMS5003;66331;46.796;9.824;2023-02-12T16:07:00;1;0;
36513;PMS5003;66331;46.796;9.824;2023-02-12T16:09:28;0;0;
36513;PMS5003;66331;46.796;9.824;2023-02-12T16:11:58;4;3;
36513;PMS5003;66331;46.796;9.824;2023-02-12T16:14:29;2;2;
36513;PMS5003;66331;46.796;9.824;2023-02-12T16:17:01;3;3;
36513;PMS5003;66331;46.796;9.824;2023-02-12T16:19:29;2;2;
36513;PMS5003;66331;46.796;9.824;2023-02-12T16:21:58;3;3;
36513;PMS5003;66331;46.796;9.824;2023-02-12T16:24:32;3;2;
36513;PMS5003;66331;46.796;9.824;2023-02-12T16:27:06;2;2;
36513;PMS5003;66331;46.796;9.824;2023-02-12T16:29:43;3;3;
36513;PMS5003;66331;46.796;9.824;2023-02-12T16:32:25;3;2;
36513;PMS5003;66331;46.796;9.824;2023-02-12T16:34:58;6;5;
36513;PMS5003;66331;46.796;9.824;2023-02-12T16:37:39;3;3;
36513;PMS5003;66331;46.796;9.824;2023-02-12T16:40:19;5;4;
36513;PMS5003;66331;46.796;9.824;2023-02-12T16:43:04;5;3;
36513;PMS5003;66331;46.796;9.824;2023-02-12T16:46:00;4;4;
36513;PMS5003;66331;46.796;9.824;2023-02-12T16:48:35;3;3;
36513;PMS5003;66331;46.796;9.824;2023-02-12T16:51:04;2;2;
36513;PMS5003;66331;46.796;9.824;2023-02-12T16:53:33;1;1;
36513;PMS5003;66331;46.796;9.824;2023-02-12T16:56:04;4;3;
36513;PMS5003;66331;46.796;9.824;2023-02-12T16:58:31;2;2;
36513;PMS5003;66331;46.796;9.824;2023-02-12T17:01:00;3;2;
36513;PMS5003;66331;46.796;9.824;2023-02-12T17:03:30;5;4;
36513;PMS5003;66331;46.796;9.824;2023-02-12T17:05:56;9;4;
36513;PMS5003;66331;46.796;9.824;2023-02-12T17:08:23;6;5;
36513;PMS5003;66331;46.796;9.824;2023-02-12T17:10:51;10;8;
36513;PMS5003;66331;46.796;9.824;2023-02-12T17:13:18;8;5;
36513;PMS5003;66331;46.796;9.824;2023-02-12T17:15:47;8;6;
36513;PMS5003;66331;46.796;9.824;2023-02-12T17:18:18;8;8;
36513;PMS5003;66331;46.796;9.824;2023-02-12T17:20:46;15;11;